x

Cape San Martin - 55nm West Nw Of Morro Bay, Ca (46028) Weather Station

12:50pm - Thu 31st Jul 2014 All times are PDT. -7 hours from GMT.

  • Wind
    13mph, 16mph gusts
  • Sea Temp 63°f
  • Air Temp 61°f
  • Sea Pressure 1015mb
  • Cape San Martin - 55nm West Nw Of Morro Bay, Ca
  • Cape San Martin - 55nm West Nw Of Morro Bay, Ca

More Historic Weather Station data

Upgrade to MSW Pro to gain access to the past 30 days of data for over 8000 Wavebouys and Weather Stations around the globe.

Join Pro

Comparision Forecast

View Surf forecast
   
Thu 07/31 12:50pm  -   -   -  13 16 mph 1015mb 63f 61f
11:50am  -   -   -  16 18 mph 1015mb 63f 60f
10:50am 4ft 8s 6s 13 18 mph 1015mb 63f 60f
9:50am 4.5ft 8s 6s 11 13 mph 1015.3mb 63f 59f
8:50am  -   -   -  11 16 mph 1015.4mb 63f 59f
7:50am 4.5ft 8s 6s 11 13 mph 1015.1mb 63f 59f
6:50am  -   -   -  11 13 mph 1014.9mb 63f 59f
5:50am 4.5ft 8s 6s 11 13 mph 1014.7mb 63f 60f
4:50am 4.5ft 8s 6s 11 13 mph 1014.7mb 63f 59f
3:50am  -   -   -  13 16 mph 1014.7mb 62f 59f
2:50am 4.5ft 8s 6s 11 16 mph 1015mb 62f 60f
1:50am 5ft 8s 7s 13 16 mph 1015.4mb 62f 60f
12:50am 5ft 8s 6s 11 13 mph 1015.5mb 62f 60f
Wed 07/30 11:50pm 5ft 8s 6s 11 13 mph 1015.3mb 62f 60f
10:50pm 5ft 9s 6s 11 16 mph 1015.4mb 62f 60f
9:50pm  -   -   -  13 16 mph 1015.4mb 62f 61f
8:50pm 5ft 8s 6s 16 20 mph 1014.8mb 62f 61f
7:50pm 5ft 8s 6s 18 20 mph 1014.3mb 63f 61f
6:50pm 6ft 8s 6s 16 20 mph 1014.1mb 63f 61f
5:50pm 5ft 8s 6s 16 18 mph 1014.4mb 63f 62f
4:50pm  -   -   -  13 16 mph 1015.1mb 63f 62f
3:50pm 5ft 7s 6s 13 16 mph 1015.5mb 62f 62f
2:50pm 5ft 8s 7s 13 18 mph 1015.9mb 62f 62f
1:50pm 5ft 8s 6s 11 16 mph 1016.3mb 62f 62f
12:50pm 5ft 8s 6s 11 16 mph 1016.3mb 62f 61f
11:50am 4.5ft 8s 6s 13 16 mph 1016.3mb 62f 61f
10:50am  -   -   -  11 13 mph 1016.3mb 62f 60f
9:50am  -   -   -  13 16 mph 1016.2mb 62f 60f
8:50am 4.5ft 8s 6s 9 13 mph 1016.5mb 62f 60f
7:50am 4.5ft 8s 6s 11 13 mph 1016.2mb 62f 60f
6:50am 5ft 8s 6s 9 13 mph 1015.9mb 63f 60f
5:50am 4.5ft 8s 6s 11 13 mph 1015.4mb 63f 60f
4:50am 5ft 8s 6s 9 13 mph 1015.5mb 63f 60f
3:50am 4.5ft 8s 6s 9 13 mph 1015.5mb 63f 61f
2:50am 4.5ft 8s 6s 13 16 mph 1015.1mb 63f 61f
1:50am 4.5ft 8s 6s 13 16 mph 1015.5mb 63f 60f
12:50am 4.5ft 8s 6s 13 16 mph 1015.5mb 63f 61f
Tue 07/29 11:50pm 4.5ft 8s 6s 13 18 mph 1016.2mb 63f 60f
10:50pm 4.5ft 8s 6s 13 16 mph 1016.1mb 63f 61f
9:50pm  -   -   -  13 18 mph 1016.2mb 63f 61f
8:50pm 4.5ft 8s 6s 16 18 mph 1015.4mb 63f 61f
7:50pm 5ft 8s 6s 16 20 mph 1015.5mb 63f 61f
6:50pm 4.5ft 8s 6s 16 20 mph 1015.4mb 64f 62f
5:50pm 4.5ft 8s 6s 13 18 mph 1015.9mb 64f 62f
4:50pm 4.5ft 8s 7s 13 18 mph 1016.4mb 64f 63f
3:50pm 4.5ft 8s 7s 13 16 mph 1017mb 65f 62f
2:50pm 4.5ft 8s 7s 9 11 mph 1017.6mb 65f 62f
1:50pm 3.5ft 8s 7s 11 13 mph 1017.7mb 64f 62f
12:50pm 3.5ft 9s 7s 9 11 mph 1018.2mb 64f 62f
11:50am 4.5ft 8s 7s 7 11 mph 1018.2mb 64f 62f
10:50am 4ft 8s 7s 9 11 mph 1018mb 63f 62f
9:50am 4.5ft 9s 7s 9 11 mph 1018.2mb 63f 61f
8:50am 4.5ft 8s 7s 9 11 mph 1018.1mb 64f 61f
7:50am 4.5ft 8s 7s 9 11 mph 1017.7mb 64f 61f
6:50am 4.5ft 8s 7s 9 11 mph 1017.2mb 64f 62f
5:50am 4.5ft 8s 7s 9 11 mph 1016.9mb 64f 62f
4:50am 4.5ft 8s 7s 11 13 mph 1016.8mb 64f 62f
3:50am 4.5ft 8s 7s 9 13 mph 1017.1mb 65f 62f
2:50am  -   -   -  9 13 mph 1017.1mb 65f 62f
1:50am 4.5ft 8s 7s 11
mph
1017.1mb 65f 62f
12:50am 4.5ft 8s 7s 9 13 mph 1017.4mb 65f 62f
Mon 07/28 11:50pm 4.5ft 8s 7s 9
mph
1017.7mb 65f 63f
10:50pm 4.5ft 9s 7s 7 11 mph 1017.8mb 65f 63f
9:50pm 4.5ft 8s 7s 7 11 mph 1017.7mb 66f 63f
8:50pm 4.5ft 8s 7s 9 11 mph 1017.3mb 66f 63f
7:50pm 4.5ft 8s 7s 7 9 mph 1017.1mb 66f 64f
6:50pm 5ft 8s 7s 7 9 mph 1016.8mb 66f 64f
5:50pm 4.5ft 9s 7s 9
mph
1017.1mb 67f 64f
4:50pm  -   -   -  7 9 mph 1017.2mb 67f 64f
3:50pm 4.5ft 8s 7s 4
mph
1017.9mb 67f 64f
2:50pm 4.5ft 8s 7s 2 4 mph 1018.2mb 67f 63f
1:50pm 4ft 8s 7s 2 7 mph 1018.5mb 67f 63f
12:50pm 4ft 8s 7s  -  2 mph 1018.8mb 66f 64f
11:50am 4ft 8s 7s 2 4 mph 1018.8mb 65f 63f
10:50am 4.5ft 8s 7s  -  4 mph 1018.6mb 65f 63f
9:50am 4.5ft 8s 7s 2
mph
1018.4mb 64f 62f
8:50am 4.5ft 15s 7s 2 4 mph 1017.9mb 64f 62f
7:50am 4.5ft 8s 7s 4 7 mph 1017.2mb 64f 61f
6:50am 5ft 8s 7s 2 4 mph 1016.8mb 64f 61f
5:50am 5ft 8s 7s 7 9 mph 1016.3mb 64f 61f
4:50am 4.5ft 8s 7s 9 11 mph 1015.9mb 64f 61f
3:50am 5ft 8s 7s 7 9 mph 1015.7mb 65f 61f
2:50am 5ft 7s 7s 9 11 mph 1015.5mb 65f 62f
1:50am 5ft 8s 7s 7 11 mph 1015.9mb 65f 62f
12:50am 5ft 8s 7s 7 9 mph 1015.9mb 65f 61f
Sun 07/27 11:50pm 4.5ft 8s 7s 7 9 mph 1015.9mb 65f 61f
10:50pm 4.5ft 8s 7s 7 9 mph 1016mb 65f 62f
9:50pm 4.5ft 8s 7s 4 7 mph 1016mb 65f 62f
8:50pm 4.5ft 8s 7s 7 9 mph 1015.6mb 66f 62f